Time;durP1;ratioP1;P1;durP2;ratioP2;P2;SDS_P1;SDS_P2;PMS_P1;PMS_P2;Temp;Humidity;BMP_temperature;BMP_pressure;BME280_temperature;BME280_humidity;BME280_pressure;Samples;Min_cycle;Max_cycle;Signal;HPM_P1;HPM_P2
2022/12/03 00:02:09;;;;;;;16.30;10.85;;;7.00;68.10;;;;;;4971204;28;20425;-78
2022/12/03 00:04:35;;;;;;;18.70;11.20;;;7.10;68.30;;;;;;4989939;28;20121;-78
2022/12/03 00:07:01;;;;;;;19.15;11.45;;;7.10;68.30;;;;;;4956701;28;20077;-78
2022/12/03 00:09:26;;;;;;;17.85;10.95;;;7.10;68.30;;;;;;4998734;28;20042;-78
2022/12/03 00:11:52;;;;;;;18.75;11.90;;;7.10;68.20;;;;;;5007738;28;20521;-78
2022/12/03 00:14:18;;;;;;;17.48;10.73;;;7.10;68.30;;;;;;5008251;28;20042;-77
2022/12/03 00:16:44;;;;;;;18.30;11.13;;;7.10;67.70;;;;;;5008143;28;20063;-78
2022/12/03 00:19:10;;;;;;;19.27;11.18;;;7.00;67.70;;;;;;5005371;28;20080;-78
2022/12/03 00:21:36;;;;;;;18.63;12.13;;;7.00;67.50;;;;;;5006901;28;20034;-78
2022/12/03 00:24:02;;;;;;;19.83;11.65;;;7.00;67.30;;;;;;5006458;28;20115;-78
2022/12/03 00:26:28;;;;;;;21.95;12.23;;;7.00;67.30;;;;;;5007964;28;20034;-79
2022/12/03 00:28:54;;;;;;;18.80;12.00;;;7.00;67.10;;;;;;5006545;28;20030;-78
2022/12/03 00:31:22;;;;;;;18.30;11.60;;;7.00;67.00;;;;;;4989179;28;20512;-78
2022/12/03 00:33:49;;;;;;;19.98;11.60;;;7.00;67.10;;;;;;5006862;28;20405;-78
2022/12/03 00:36:15;;;;;;;16.55;10.70;;;7.00;67.00;;;;;;5006916;28;20038;-78
2022/12/03 00:38:41;;;;;;;18.38;11.63;;;7.00;67.00;;;;;;4970798;28;20466;-78
2022/12/03 00:41:07;;;;;;;16.70;11.13;;;7.00;67.00;;;;;;4990256;28;20054;-78
2022/12/03 00:43:32;;;;;;;18.48;11.20;;;7.00;67.00;;;;;;5006290;28;20029;-78
2022/12/03 00:45:59;;;;;;;18.83;11.65;;;7.00;66.90;;;;;;5004187;28;20105;-79
2022/12/03 00:48:24;;;;;;;19.48;11.82;;;7.00;66.90;;;;;;5004890;28;20062;-78
2022/12/03 00:50:50;;;;;;;20.45;12.02;;;7.00;66.70;;;;;;5003674;28;20205;-78
2022/12/03 00:53:17;;;;;;;18.70;11.68;;;7.00;66.60;;;;;;5004365;28;20036;-78
2022/12/03 00:55:43;;;;;;;18.83;11.05;;;7.00;66.60;;;;;;5004137;28;20528;-79
2022/12/03 00:58:09;;;;;;;18.55;12.05;;;7.00;66.60;;;;;;5004952;28;20046;-78
2022/12/03 01:00:36;;;;;;;17.83;11.95;;;7.00;67.00;;;;;;4984411;28;20436;-78
2022/12/03 01:03:03;;;;;;;20.05;11.18;;;7.00;67.00;;;;;;5000762;28;20461;-78
2022/12/03 01:05:29;;;;;;;19.05;10.88;;;7.00;67.10;;;;;;5000816;28;20535;-79
2022/12/03 01:07:55;;;;;;;17.77;10.95;;;7.00;67.20;;;;;;5003747;28;20026;-78
2022/12/03 01:10:21;;;;;;;19.02;11.02;;;7.00;67.00;;;;;;4999842;28;20035;-78
2022/12/03 01:12:47;;;;;;;18.83;11.43;;;7.00;67.00;;;;;;5004916;28;20421;-78
2022/12/03 01:15:12;;;;;;;19.52;10.80;;;7.00;67.30;;;;;;5003922;28;20517;-78
2022/12/03 01:17:38;;;;;;;19.38;11.10;;;6.90;66.90;;;;;;5002687;28;20042;-78
2022/12/03 01:20:07;;;;;;;18.92;11.25;;;7.00;67.00;;;;;;5002917;28;20041;-77
2022/12/03 01:22:34;;;;;;;19.48;11.45;;;7.00;66.90;;;;;;5001917;28;20029;-77
2022/12/03 01:25:00;;;;;;;18.35;11.48;;;7.00;66.80;;;;;;5001793;28;20607;-77
2022/12/03 01:27:26;;;;;;;17.23;10.50;;;7.00;66.60;;;;;;5003550;28;20046;-77
2022/12/03 01:29:52;;;;;;;16.88;10.40;;;6.90;66.50;;;;;;5002035;28;20111;-77
2022/12/03 01:32:18;;;;;;;19.13;11.13;;;6.90;66.20;;;;;;5002607;28;20038;-77
2022/12/03 01:34:54;;;;;;;17.33;10.35;;;6.90;66.70;;;;;;5003161;28;20381;-78
2022/12/03 01:37:23;;;;;;;18.60;10.80;;;6.90;66.20;;;;;;4985231;28;20183;-77
2022/12/03 01:39:49;;;;;;;17.05;10.48;;;6.90;65.70;;;;;;5001525;28;20505;-78
2022/12/03 01:42:33;;;;;;;18.75;11.48;;;6.90;65.80;;;;;;4998598;28;20034;-78
2022/12/03 01:45:00;;;;;;;17.10;10.52;;;6.90;65.90;;;;;;5002727;28;20049;-78
2022/12/03 01:47:32;;;;;;;18.52;11.07;;;6.90;65.80;;;;;;4994044;28;20050;-78
2022/12/03 01:50:06;;;;;;;18.20;11.02;;;6.90;65.70;;;;;;4985762;28;20030;-78
2022/12/03 01:52:36;;;;;;;19.65;11.15;;;6.90;65.80;;;;;;4983245;28;20109;-77
2022/12/03 01:55:06;;;;;;;16.40;10.30;;;6.90;65.70;;;;;;4998379;28;20112;-77
2022/12/03 01:57:50;;;;;;;17.83;10.65;;;6.90;65.50;;;;;;5003373;28;20084;-78
2022/12/03 02:00:23;;;;;;;18.30;10.68;;;6.90;65.50;;;;;;4992979;28;20039;-78
2022/12/03 02:02:52;;;;;;;19.40;10.80;;;6.90;65.50;;;;;;4982977;28;20030;-78
2022/12/03 02:05:25;;;;;;;16.17;11.05;;;6.90;65.60;;;;;;4984569;28;20026;-78
2022/12/03 02:07:52;;;;;;;15.23;10.05;;;6.90;65.80;;;;;;4985261;28;20038;-79
2022/12/03 02:10:31;;;;;;;18.70;10.77;;;6.90;65.70;;;;;;4983306;28;20064;-78
2022/12/03 02:12:58;;;;;;;19.27;10.60;;;6.90;65.70;;;;;;4980135;28;20041;-79
2022/12/03 02:15:24;;;;;;;20.10;11.30;;;6.90;65.70;;;;;;4981676;28;20034;-79
2022/12/03 02:17:51;;;;;;;16.90;10.48;;;6.90;65.70;;;;;;4983220;28;20030;-79
2022/12/03 02:20:17;;;;;;;17.17;11.15;;;6.80;65.80;;;;;;4983063;28;20022;-79
2022/12/03 02:23:12;;;;;;;17.65;10.52;;;6.90;65.60;;;;;;4983981;28;20042;-78
2022/12/03 02:25:38;;;;;;;17.80;11.30;;;6.80;65.40;;;;;;4982775;28;20541;-79
2022/12/03 02:28:06;;;;;;;17.10;11.40;;;6.80;65.30;;;;;;4983429;28;20133;-78
2022/12/03 02:30:33;;;;;;;20.00;10.60;;;6.80;65.20;;;;;;4984617;28;20042;-78
2022/12/03 02:33:00;;;;;;;15.88;10.07;;;6.90;65.10;;;;;;4986622;28;21086;-78
2022/12/03 02:35:30;;;;;;;16.58;10.63;;;6.90;65.10;;;;;;4972517;28;20092;-79
2022/12/03 02:38:06;;;;;;;18.25;10.98;;;6.80;65.20;;;;;;4997218;28;20062;-78
2022/12/03 02:40:32;;;;;;;15.07;9.82;;;6.80;65.20;;;;;;5003697;28;20054;-78
2022/12/03 02:43:01;;;;;;;16.42;10.45;;;6.80;65.30;;;;;;5002926;28;20267;-76
2022/12/03 02:45:37;;;;;;;14.90;10.30;;;6.80;65.30;;;;;;4998518;28;20037;-76
2022/12/03 02:48:20;;;;;;;;;;;6.80;65.50;;;;;;5004588;28;20430;-80
2022/12/03 02:50:58;;;;;;;17.48;10.55;;;6.80;65.50;;;;;;5002176;28;19921;-78
2022/12/03 02:53:36;;;;;;;17.33;10.90;;;6.80;65.10;;;;;;5002561;28;20034;-78
2022/12/03 02:56:03;;;;;;;16.77;11.10;;;6.80;65.10;;;;;;4982364;28;20026;-78
2022/12/03 02:58:31;;;;;;;16.50;10.48;;;6.80;65.00;;;;;;4990171;28;20389;-79
2022/12/03 03:00:59;;;;;;;18.38;11.90;;;6.80;65.00;;;;;;4983708;28;20069;-78
2022/12/03 03:03:28;;;;;;;17.98;11.35;;;6.80;64.90;;;;;;4987883;28;20069;-78
2022/12/03 03:05:58;;;;;;;17.98;10.85;;;6.70;64.90;;;;;;4968024;28;20502;-78
2022/12/03 03:08:24;;;;;;;16.38;11.23;;;6.80;65.30;;;;;;4955699;28;20522;-79
2022/12/03 03:10:51;;;;;;;17.38;11.02;;;6.80;65.00;;;;;;4987667;28;20069;-79
2022/12/03 03:13:19;;;;;;;17.63;10.43;;;6.80;65.40;;;;;;4998352;28;20048;-77
2022/12/03 03:15:45;;;;;;;16.73;10.15;;;6.80;65.20;;;;;;5002180;28;20501;-78
2022/12/03 03:18:12;;;;;;;16.95;11.05;;;6.70;65.30;;;;;;5004532;28;20045;-78
2022/12/03 03:20:39;;;;;;;18.90;10.90;;;6.80;66.00;;;;;;5004591;28;20117;-79
2022/12/03 03:23:11;;;;;;;17.80;10.75;;;6.80;65.40;;;;;;5002488;28;20121;-77
2022/12/03 03:25:38;;;;;;;16.73;10.95;;;6.80;65.40;;;;;;4983525;28;20370;-78
2022/12/03 03:28:05;;;;;;;18.23;10.70;;;6.70;65.70;;;;;;5002068;28;20038;-78
2022/12/03 03:30:32;;;;;;;19.88;10.98;;;6.80;65.50;;;;;;4989995;28;20126;-78
2022/12/03 03:32:58;;;;;;;19.90;11.40;;;6.70;65.40;;;;;;4982816;28;20061;-78
2022/12/03 03:35:25;;;;;;;16.50;10.52;;;6.70;65.30;;;;;;4979704;28;20031;-77
2022/12/03 03:37:52;;;;;;;17.52;10.65;;;6.80;65.30;;;;;;4982525;28;20030;-78
2022/12/03 03:40:20;;;;;;;17.30;10.50;;;6.70;65.10;;;;;;4980271;28;20047;-76
2022/12/03 03:42:47;;;;;;;15.90;10.02;;;6.70;65.00;;;;;;4979963;28;20420;-79
2022/12/03 03:45:14;;;;;;;16.55;9.98;;;6.70;65.00;;;;;;4964937;28;20544;-78
2022/12/03 03:47:41;;;;;;;18.60;10.55;;;6.70;64.90;;;;;;4982959;28;20624;-77
2022/12/03 03:50:09;;;;;;;17.90;10.75;;;6.80;65.10;;;;;;4981170;28;20076;-77
2022/12/03 03:52:36;;;;;;;17.05;10.23;;;6.70;64.90;;;;;;4981666;28;20083;-78
2022/12/03 03:55:03;;;;;;;21.60;10.77;;;6.70;64.80;;;;;;4991487;28;20030;-77
2022/12/03 03:57:29;;;;;;;19.10;10.18;;;6.70;64.70;;;;;;4999940;28;20030;-77
2022/12/03 03:59:57;;;;;;;17.30;9.68;;;6.70;64.80;;;;;;4968717;28;20030;-78
2022/12/03 04:02:25;;;;;;;17.65;10.05;;;6.70;64.70;;;;;;5001678;28;20061;-79
2022/12/03 04:04:51;;;;;;;14.80;9.50;;;6.70;64.70;;;;;;5000124;28;20033;-78
2022/12/03 04:07:17;;;;;;;18.02;10.65;;;6.70;64.60;;;;;;5004838;28;20030;-77
2022/12/03 04:09:44;;;;;;;19.10;10.25;;;6.70;64.50;;;;;;4990433;28;20050;-77
2022/12/03 04:14:57;;;;;;;15.23;10.05;;;6.70;64.70;;;;;;5005094;28;20033;-77
2022/12/03 04:17:23;;;;;;;15.45;10.00;;;6.70;64.70;;;;;;4986763;28;20044;-77
2022/12/03 04:19:49;;;;;;;16.15;10.52;;;6.70;64.50;;;;;;5005856;28;20034;-77
2022/12/03 04:30:28;;;;;;;16.45;10.63;;;6.70;64.50;;;;;;5004821;28;20113;-76
2022/12/03 04:35:41;;;;;;;18.88;9.85;;;6.70;64.30;;;;;;5006155;28;20061;-77
2022/12/03 04:38:13;;;;;;;18.35;10.68;;;6.70;64.20;;;;;;4986488;28;20088;-77
2022/12/03 04:43:24;;;;;;;17.20;10.38;;;6.60;64.20;;;;;;5006069;28;20049;-77
2022/12/03 04:45:50;;;;;;;15.85;9.95;;;6.60;64.10;;;;;;5005946;28;20044;-77
2022/12/03 04:48:16;;;;;;;15.60;10.43;;;6.60;64.00;;;;;;5001328;28;20042;-77
2022/12/03 04:50:42;;;;;;;15.60;10.07;;;6.60;63.90;;;;;;4992274;28;20060;-77
2022/12/03 04:53:08;;;;;;;17.50;10.77;;;6.60;63.80;;;;;;5000395;28;20034;-77
2022/12/03 04:55:34;;;;;;;16.00;10.20;;;6.60;64.00;;;;;;4986953;28;20018;-77
2022/12/03 04:58:00;;;;;;;18.88;10.85;;;6.60;63.60;;;;;;4986587;28;20172;-76
2022/12/03 05:00:26;;;;;;;15.90;10.45;;;6.60;63.50;;;;;;4987979;28;20088;-78
2022/12/03 05:02:52;;;;;;;18.33;10.75;;;6.60;63.50;;;;;;4970790;28;20037;-78
2022/12/03 05:05:18;;;;;;;17.65;10.48;;;6.60;63.20;;;;;;4984812;28;20034;-79
2022/12/03 05:07:44;;;;;;;16.33;10.30;;;6.60;63.20;;;;;;4986474;28;20682;-78
2022/12/03 05:10:11;;;;;;;18.98;10.48;;;6.50;63.30;;;;;;4986764;28;20037;-78
2022/12/03 05:12:36;;;;;;;15.68;10.07;;;6.60;63.40;;;;;;4988175;28;20043;-79
2022/12/03 05:15:04;;;;;;;16.20;9.73;;;6.60;63.80;;;;;;4987960;28;20042;-79
2022/12/03 05:17:30;;;;;;;19.20;10.68;;;6.60;63.80;;;;;;4983288;28;20529;-79
2022/12/03 05:22:41;;;;;;;16.60;9.80;;;6.60;63.90;;;;;;5005028;28;20057;-79
2022/12/03 05:25:08;;;;;;;17.20;9.30;;;6.60;64.00;;;;;;5000027;28;20049;-79
2022/12/03 05:27:34;;;;;;;15.32;9.30;;;6.60;63.80;;;;;;4993285;28;20034;-80
2022/12/03 05:30:00;;;;;;;15.68;9.60;;;6.50;63.80;;;;;;4985060;28;20034;-78
2022/12/03 05:32:25;;;;;;;14.55;9.27;;;6.50;63.80;;;;;;4986423;28;20045;-79
2022/12/03 05:34:51;;;;;;;13.60;9.25;;;6.60;63.70;;;;;;4986197;28;20038;-78
2022/12/03 05:37:18;;;;;;;17.02;10.20;;;6.60;63.70;;;;;;4985528;28;20038;-81
2022/12/03 05:39:43;;;;;;;14.98;9.48;;;6.50;63.60;;;;;;4984720;28;20050;-78
2022/12/03 05:44:55;;;;;;;18.98;9.63;;;6.50;63.40;;;;;;4985741;28;20038;-78
2022/12/03 05:47:21;;;;;;;17.88;9.60;;;6.60;63.60;;;;;;4983489;28;20438;-78
2022/12/03 05:49:47;;;;;;;16.70;9.93;;;6.50;63.50;;;;;;4986203;28;20026;-78
2022/12/03 05:52:13;;;;;;;20.88;9.75;;;6.50;63.50;;;;;;4984199;28;20051;-79
2022/12/03 05:54:38;;;;;;;16.98;9.73;;;6.60;63.60;;;;;;4983464;28;20089;-77
2022/12/03 05:57:05;;;;;;;15.07;9.25;;;6.50;63.30;;;;;;4985904;28;20038;-77
2022/12/03 05:59:30;;;;;;;15.15;9.68;;;6.60;63.60;;;;;;4985533;28;20030;-78
2022/12/03 06:01:56;;;;;;;16.23;9.60;;;6.60;63.50;;;;;;4985055;28;20056;-77
2022/12/03 06:04:22;;;;;;;17.02;10.02;;;6.50;63.40;;;;;;4986561;28;20494;-78
2022/12/03 06:06:48;;;;;;;17.83;10.35;;;6.50;63.50;;;;;;4986320;28;20842;-77
2022/12/03 06:09:14;;;;;;;16.85;9.35;;;6.60;63.50;;;;;;4966685;28;20417;-78
2022/12/03 06:11:40;;;;;;;16.83;9.90;;;6.50;63.40;;;;;;4984225;28;20057;-77
2022/12/03 06:14:06;;;;;;;17.17;9.57;;;6.60;63.50;;;;;;4982303;28;20073;-78
2022/12/03 06:16:32;;;;;;;16.55;9.90;;;6.60;63.20;;;;;;4987613;28;20046;-78
2022/12/03 06:18:59;;;;;;;16.33;9.25;;;6.60;63.40;;;;;;5000923;28;20471;-80
2022/12/03 06:21:25;;;;;;;16.17;9.57;;;6.60;64.30;;;;;;4997127;28;20034;-79
2022/12/03 06:23:51;;;;;;;17.90;9.68;;;6.60;63.70;;;;;;4984933;28;20113;-80
2022/12/03 06:26:17;;;;;;;15.82;8.80;;;6.60;64.00;;;;;;4953691;28;20037;-80
2022/12/03 06:28:45;;;;;;;15.27;8.68;;;6.60;64.60;;;;;;4967395;28;20029;-81
2022/12/03 06:31:12;;;;;;;15.23;9.00;;;6.60;63.90;;;;;;4966045;28;20093;-81
2022/12/03 06:33:38;;;;;;;16.25;9.18;;;6.60;63.80;;;;;;4985608;28;20469;-80
2022/12/03 06:36:04;;;;;;;19.55;9.10;;;6.70;64.00;;;;;;4976802;28;20034;-82
2022/12/03 06:38:30;;;;;;;15.10;8.88;;;6.60;63.90;;;;;;4995646;28;20121;-82
2022/12/03 06:40:56;;;;;;;16.60;8.98;;;6.70;64.00;;;;;;4963662;28;20506;-83
2022/12/03 06:43:22;;;;;;;16.60;8.70;;;6.70;64.00;;;;;;4980336;28;20034;-82
2022/12/03 06:45:48;;;;;;;14.35;8.85;;;6.70;64.00;;;;;;4981258;28;20094;-80
2022/12/03 06:48:14;;;;;;;16.27;9.27;;;6.70;64.10;;;;;;4984378;28;20151;-82
2022/12/03 06:50:40;;;;;;;17.77;9.43;;;6.70;64.10;;;;;;4986396;28;20169;-79
2022/12/03 06:53:06;;;;;;;17.17;8.73;;;6.70;64.40;;;;;;4985520;28;20417;-80
2022/12/03 06:55:31;;;;;;;13.07;7.72;;;6.70;64.10;;;;;;4994184;28;20482;-81
2022/12/03 06:57:57;;;;;;;14.77;8.23;;;6.70;64.20;;;;;;4987104;28;20069;-80
2022/12/03 07:00:24;;;;;;;17.73;8.38;;;6.70;64.10;;;;;;4976386;28;20034;-80
2022/12/03 07:02:50;;;;;;;13.65;8.57;;;6.70;64.10;;;;;;4985922;28;20045;-77
2022/12/03 07:05:16;;;;;;;17.23;8.93;;;6.70;64.20;;;;;;4986501;28;20039;-79
2022/12/03 07:07:42;;;;;;;14.00;8.27;;;6.80;64.20;;;;;;4975552;28;20891;-74
2022/12/03 07:10:08;;;;;;;15.30;8.88;;;6.80;64.10;;;;;;4983382;28;20094;-75
2022/12/03 07:12:34;;;;;;;15.85;8.18;;;6.80;64.10;;;;;;4985402;28;20046;-75
2022/12/03 07:15:00;;;;;;;28.77;9.35;;;6.80;64.00;;;;;;4983415;28;20636;-74
2022/12/03 07:17:28;;;;;;;14.68;8.25;;;6.80;63.90;;;;;;4985544;28;20130;-76
2022/12/03 07:19:54;;;;;;;18.92;8.88;;;6.80;63.70;;;;;;4983869;28;20035;-76
2022/12/03 07:22:20;;;;;;;15.52;8.35;;;6.90;63.80;;;;;;4986379;28;20038;-75
2022/12/03 07:24:46;;;;;;;17.98;8.52;;;6.90;63.90;;;;;;4984683;28;20038;-75
2022/12/03 07:27:12;;;;;;;15.77;8.15;;;6.90;63.90;;;;;;4985465;28;20425;-76
2022/12/03 07:29:38;;;;;;;12.82;8.30;;;6.90;63.60;;;;;;4985507;28;20034;-76
2022/12/03 07:32:04;;;;;;;15.65;8.57;;;7.00;63.60;;;;;;4983481;28;20048;-78
2022/12/03 07:34:30;;;;;;;14.52;8.32;;;7.00;63.60;;;;;;4985076;28;20226;-81
2022/12/03 07:36:56;;;;;;;14.90;8.43;;;7.00;63.50;;;;;;4984236;28;20125;-80
2022/12/03 07:39:22;;;;;;;16.02;8.60;;;7.10;63.80;;;;;;4985222;28;20046;-79
2022/12/03 07:41:48;;;;;;;16.17;9.90;;;7.10;63.90;;;;;;4981382;28;20045;-77
2022/12/03 07:44:13;;;;;;;16.20;9.38;;;7.10;64.00;;;;;;4977102;28;20034;-74
2022/12/03 07:46:40;;;;;;;21.80;9.85;;;7.10;66.60;;;;;;4989953;28;20495;-77
2022/12/03 07:49:06;;;;;;;21.67;11.07;;;7.30;68.20;;;;;;4989270;28;20468;-82
2022/12/03 07:51:32;;;;;;;16.20;10.02;;;7.30;63.60;;;;;;4989029;28;20100;-80
2022/12/03 07:53:58;;;;;;;16.77;9.55;;;7.40;64.20;;;;;;4987473;28;20074;-77
2022/12/03 07:56:24;;;;;;;17.83;9.88;;;7.40;64.00;;;;;;4976999;28;20035;-80
2022/12/03 07:58:50;;;;;;;17.13;10.35;;;7.50;63.60;;;;;;4990728;28;20019;-81
2022/12/03 08:01:16;;;;;;;21.02;10.60;;;7.50;62.90;;;;;;4981828;28;20035;-78
2022/12/03 08:03:42;;;;;;;17.35;10.32;;;7.60;62.40;;;;;;4992328;28;20042;-78
2022/12/03 08:06:08;;;;;;;17.77;10.57;;;7.60;61.70;;;;;;4994273;28;20042;-78
2022/12/03 08:08:34;;;;;;;21.50;11.40;;;7.60;61.40;;;;;;4992037;28;20038;-75
2022/12/03 08:11:01;;;;;;;17.20;10.48;;;7.60;61.20;;;;;;4977123;28;20039;-78
2022/12/03 08:13:27;;;;;;;16.55;10.15;;;7.60;60.90;;;;;;5012186;28;20128;-78
2022/12/03 08:16:00;;;;;;;16.52;10.45;;;7.60;60.90;;;;;;5005417;28;20474;-78
2022/12/03 08:18:27;;;;;;;17.67;9.98;;;7.60;60.90;;;;;;5012697;28;20034;-78
2022/12/03 08:20:53;;;;;;;18.20;10.75;;;7.60;60.90;;;;;;5009309;28;20516;-79
2022/12/03 08:23:24;;;;;;;17.17;9.93;;;7.60;60.70;;;;;;5012459;28;20113;-79
2022/12/03 08:25:51;;;;;;;15.35;10.38;;;7.60;60.60;;;;;;5006994;28;20030;-78
2022/12/03 08:28:25;;;;;;;19.83;11.10;;;7.60;60.70;;;;;;4994832;28;20069;-78
2022/12/03 08:31:02;;;;;;;18.30;10.30;;;7.60;60.80;;;;;;5004058;28;20037;-79
2022/12/03 08:33:32;;;;;;;21.17;10.65;;;7.70;61.10;;;;;;5008008;28;20037;-79
2022/12/03 08:36:00;;;;;;;20.58;10.85;;;7.70;61.10;;;;;;5003047;28;20034;-80
2022/12/03 08:38:28;;;;;;;18.60;10.70;;;7.70;61.10;;;;;;4993580;28;20030;-79
2022/12/03 08:40:54;;;;;;;19.48;10.43;;;7.70;61.10;;;;;;4992315;28;20050;-79
2022/12/03 08:43:23;;;;;;;19.70;11.38;;;7.70;61.00;;;;;;4973120;28;20134;-79
2022/12/03 08:45:51;;;;;;;18.88;11.15;;;7.70;60.90;;;;;;4974591;28;20039;-80
2022/12/03 08:48:24;;;;;;;19.02;10.85;;;7.70;60.90;;;;;;4967460;28;20038;-81
2022/12/03 08:50:50;;;;;;;17.50;10.52;;;7.70;60.90;;;;;;4992947;28;20038;-80
2022/12/03 08:53:32;;;;;;;18.30;10.32;;;7.70;60.70;;;;;;4972040;28;20026;-79
2022/12/03 08:56:01;;;;;;;20.02;11.32;;;7.70;60.50;;;;;;4991809;28;20037;-79
2022/12/03 08:58:32;;;;;;;20.75;12.02;;;7.70;60.60;;;;;;4975324;28;20097;-80
2022/12/03 09:01:11;;;;;;;21.45;11.13;;;7.60;59.70;;;;;;4989394;28;20038;-78
2022/12/03 09:04:14;;;;;;;20.45;11.90;;;7.70;59.50;;;;;;4972756;28;20042;-79
2022/12/03 09:06:40;;;;;;;20.15;12.02;;;7.60;59.20;;;;;;4985523;28;20837;-78
2022/12/03 09:09:06;;;;;;;19.52;11.25;;;7.60;59.00;;;;;;4986669;28;20038;-79
2022/12/03 09:11:32;;;;;;;17.65;10.80;;;7.60;58.90;;;;;;4970860;28;20529;-81
2022/12/03 09:13:58;;;;;;;18.98;10.73;;;7.50;58.70;;;;;;4955354;28;20039;-79
2022/12/03 09:16:23;;;;;;;19.02;10.82;;;7.50;58.60;;;;;;4970609;28;20058;-79
2022/12/03 09:18:49;;;;;;;17.75;11.00;;;7.50;58.40;;;;;;4967292;28;20061;-80
2022/12/03 09:21:15;;;;;;;16.58;10.57;;;7.50;58.30;;;;;;4972146;28;20065;-79
2022/12/03 09:23:41;;;;;;;17.98;11.02;;;7.50;58.20;;;;;;4972048;28;20038;-78
2022/12/03 09:26:07;;;;;;;17.15;10.63;;;7.40;58.10;;;;;;4970690;28;20441;-79
2022/12/03 09:28:33;;;;;;;19.13;10.30;;;7.40;58.30;;;;;;4970898;28;20049;-79
2022/12/03 09:30:59;;;;;;;17.67;10.70;;;7.40;58.30;;;;;;4982260;28;20034;-80
2022/12/03 09:33:25;;;;;;;16.52;9.63;;;7.40;58.60;;;;;;4978736;28;20031;-80
2022/12/03 09:35:51;;;;;;;19.50;11.68;;;7.40;58.60;;;;;;4994814;28;20532;-80
2022/12/03 09:38:17;;;;;;;18.35;10.77;;;7.30;58.50;;;;;;4976543;28;20081;-79
2022/12/03 09:40:43;;;;;;;19.27;10.93;;;7.30;58.80;;;;;;4988444;28;20049;-80
2022/12/03 09:43:10;;;;;;;19.20;10.38;;;7.30;58.70;;;;;;4996909;28;20077;-80
2022/12/03 09:45:36;;;;;;;15.95;10.43;;;7.30;58.50;;;;;;5005873;28;20043;-77
2022/12/03 09:48:03;;;;;;;16.73;10.18;;;7.30;58.70;;;;;;4987952;28;20524;-79
2022/12/03 09:50:30;;;;;;;19.98;10.80;;;7.30;58.70;;;;;;5002939;28;20049;-78
2022/12/03 09:53:00;;;;;;;22.48;11.55;;;7.30;58.60;;;;;;5004702;28;20045;-79
2022/12/03 09:55:27;;;;;;;18.08;10.98;;;7.20;58.60;;;;;;4983772;28;20062;-80
2022/12/03 09:57:55;;;;;;;17.80;10.52;;;7.20;58.50;;;;;;4986385;28;20038;-78
2022/12/03 10:00:27;;;;;;;19.05;10.65;;;7.20;58.60;;;;;;4983499;28;20034;-79
2022/12/03 10:03:01;;;;;;;18.65;10.85;;;7.20;58.50;;;;;;4985877;28;20038;-79
2022/12/03 10:05:28;;;;;;;19.33;11.57;;;7.20;58.60;;;;;;4986189;28;20030;-83
2022/12/03 10:08:02;;;;;;;19.15;11.35;;;7.20;58.70;;;;;;4985937;28;20038;-79
2022/12/03 10:10:28;;;;;;;20.83;12.00;;;7.20;58.70;;;;;;5001821;28;20088;-78
2022/12/03 10:12:54;;;;;;;20.10;10.75;;;7.20;58.70;;;;;;5007904;28;20048;-75
2022/12/03 10:15:22;;;;;;;20.98;11.07;;;7.20;58.90;;;;;;5001869;28;20129;-75
2022/12/03 10:17:51;;;;;;;17.80;10.55;;;7.10;58.70;;;;;;4992972;28;20042;-76
2022/12/03 10:20:20;;;;;;;21.20;11.18;;;7.10;58.50;;;;;;5009289;28;20034;-74
2022/12/03 10:22:47;;;;;;;21.13;11.50;;;7.10;58.50;;;;;;5008733;28;20037;-76
2022/12/03 10:25:31;;;;;;;21.15;11.25;;;7.10;58.40;;;;;;5008257;28;20034;-75
2022/12/03 10:28:00;;;;;;;19.15;11.27;;;7.10;58.40;;;;;;5008271;28;20048;-74
2022/12/03 10:30:27;;;;;;;23.50;11.57;;;7.10;58.60;;;;;;5004931;28;20041;-72
2022/12/03 10:32:55;;;;;;;17.95;10.80;;;7.10;58.90;;;;;;5001137;28;20066;-74
2022/12/03 10:35:24;;;;;;;17.23;10.07;;;7.10;59.10;;;;;;5005950;28;20505;-78
2022/12/03 10:38:00;;;;;;;23.35;11.63;;;7.10;59.00;;;;;;5008923;28;20029;-81
2022/12/03 10:40:29;;;;;;;19.23;10.10;;;7.10;58.80;;;;;;4983299;28;20128;-86
2022/12/03 10:43:26;;;;;;;19.08;9.95;;;7.10;60.00;;;;;;4971123;28;20045;-83
2022/12/03 10:45:58;;;;;;;18.38;9.48;;;7.20;60.40;;;;;;5013916;28;20186;-80
2022/12/03 10:48:26;;;;;;;22.88;9.02;;;7.20;62.40;;;;;;5001530;28;20087;-80
2022/12/03 10:51:04;;;;;;;20.08;9.73;;;7.20;62.80;;;;;;5001846;28;20053;-79
2022/12/03 10:53:35;;;;;;;17.25;9.75;;;7.30;63.30;;;;;;5007061;28;20034;-80
2022/12/03 10:56:04;;;;;;;16.88;9.32;;;7.30;63.40;;;;;;5003009;28;20033;-79
2022/12/03 10:58:36;;;;;;;17.85;9.82;;;7.30;63.20;;;;;;4984391;28;20066;-79
2022/12/03 11:01:14;;;;;;;16.17;9.40;;;7.30;63.10;;;;;;4969840;28;20038;-80
2022/12/03 11:03:40;;;;;;;15.27;9.30;;;7.30;63.10;;;;;;4984664;28;20441;-81
2022/12/03 11:06:09;;;;;;;17.13;9.35;;;7.40;63.10;;;;;;4983286;28;20122;-81
2022/12/03 11:08:36;;;;;;;20.65;9.50;;;7.40;63.00;;;;;;4986020;28;20528;-82
2022/12/03 11:11:04;;;;;;;18.45;9.52;;;7.40;63.00;;;;;;4985128;28;20037;-81
2022/12/03 11:13:33;;;;;;;21.65;10.32;;;7.40;63.00;;;;;;4968233;28;20038;-81
2022/12/03 11:16:06;;;;;;;18.17;9.93;;;7.40;62.90;;;;;;5012838;28;20037;-80
2022/12/03 11:18:35;;;;;;;16.27;8.95;;;7.40;63.60;;;;;;4971722;28;20042;-82
2022/12/03 11:21:08;;;;;;;16.67;9.30;;;7.50;63.10;;;;;;4954832;28;20506;-81
2022/12/03 11:23:43;;;;;;;38.50;10.25;;;7.50;63.10;;;;;;4971998;28;20529;-81
2022/12/03 11:26:10;;;;;;;32.10;9.57;;;7.50;64.50;;;;;;4971212;28;20038;-84
2022/12/03 11:28:50;;;;;;;21.88;9.15;;;7.50;63.90;;;;;;4986071;28;20101;-82
2022/12/03 11:31:41;;;;;;;16.73;8.90;;;7.50;64.20;;;;;;4991807;28;20133;-83
2022/12/03 11:34:21;;;;;;;23.60;9.63;;;7.60;63.90;;;;;;4970358;28;20042;-86
2022/12/03 11:37:09;;;;;;;17.73;9.07;;;7.60;64.00;;;;;;5005868;28;20033;-87
2022/12/03 11:39:50;;;;;;;17.30;7.88;;;7.60;64.90;;;;;;5001257;28;20035;-90
2022/12/03 11:42:37;;;;;;;17.73;8.07;;;7.80;70.60;;;;;;4965827;28;20049;-89
2022/12/03 11:45:04;;;;;;;19.15;8.95;;;7.80;69.30;;;;;;5003981;28;20037;-89
2022/12/03 11:47:43;;;;;;;18.00;8.60;;;7.80;69.10;;;;;;4971016;28;20089;-85
2022/12/03 11:50:30;;;;;;;18.05;9.35;;;7.80;68.30;;;;;;4970150;28;20030;-88
2022/12/03 11:53:06;;;;;;;15.55;8.65;;;7.80;67.30;;;;;;4955335;28;20044;-86
2022/12/03 11:55:47;;;;;;;19.73;9.45;;;7.80;67.40;;;;;;5005492;28;20034;-83
2022/12/03 11:58:16;;;;;;;17.38;9.07;;;7.80;66.60;;;;;;4988331;28;20477;-83
2022/12/03 12:00:50;;;;;;;17.13;8.88;;;7.80;66.70;;;;;;4972082;28;20065;-82
2022/12/03 12:03:21;;;;;;;14.65;8.68;;;7.90;67.10;;;;;;4980355;28;20746;-78
2022/12/03 12:06:00;;;;;;;14.48;8.40;;;7.90;67.80;;;;;;4988602;28;20046;-86
2022/12/03 12:08:26;;;;;;;18.27;9.65;;;7.90;67.70;;;;;;4969691;28;20033;-87
2022/12/03 12:10:52;;;;;;;16.58;9.23;;;8.00;67.60;;;;;;4988342;28;20044;-90
2022/12/03 12:13:48;;;;;;;18.92;9.27;;;8.00;67.20;;;;;;4956545;28;20418;-82
2022/12/03 12:16:46;;;;;;;18.20;9.23;;;8.00;66.90;;;;;;4981855;28;20031;-89
2022/12/03 12:19:32;;;;;;;19.67;9.18;;;8.00;66.70;;;;;;4967575;28;20031;-84
2022/12/03 12:22:17;;;;;;;;;;;8.00;66.60;;;;;;4970668;28;20512;-85
2022/12/03 12:24:46;;;;;;;16.15;9.10;;;8.00;66.40;;;;;;4979484;28;19972;-79
2022/12/03 12:27:18;;;;;;;15.27;9.10;;;8.00;66.50;;;;;;4998628;28;20034;-79
2022/12/03 12:29:55;;;;;;;;;;;8.00;66.40;;;;;;4983943;28;20482;-85
2022/12/03 12:32:29;;;;;;;16.40;9.07;;;8.00;66.50;;;;;;4986092;28;20583;-81
2022/12/03 12:35:12;;;;;;;15.68;8.90;;;8.00;66.70;;;;;;4972103;28;20038;-78
2022/12/03 12:37:53;;;;;;;16.67;9.20;;;8.00;67.30;;;;;;4985898;28;20038;-78
2022/12/03 12:40:22;;;;;;;14.95;8.77;;;8.00;67.90;;;;;;4972956;28;20468;-78
2022/12/03 12:42:58;;;;;;;17.80;9.18;;;8.00;68.30;;;;;;5003005;28;20065;-80
2022/12/03 12:45:34;;;;;;;17.90;8.90;;;8.00;68.40;;;;;;5005621;28;20041;-87
2022/12/03 12:48:09;;;;;;;14.45;9.00;;;8.00;68.60;;;;;;4990756;28;20452;-84
2022/12/03 12:50:37;;;;;;;15.30;9.13;;;8.00;68.60;;;;;;5003282;28;20093;-81
2022/12/03 12:53:29;;;;;;;19.98;9.75;;;8.00;68.70;;;;;;4970722;28;20058;-82
2022/12/03 12:55:58;;;;;;;16.75;9.02;;;8.00;68.80;;;;;;4973208;28;20500;-83
2022/12/03 12:58:25;;;;;;;15.45;9.05;;;8.00;69.00;;;;;;4986400;28;20522;-84
2022/12/03 13:00:55;;;;;;;15.98;9.23;;;8.00;69.20;;;;;;4987394;28;20037;-83
2022/12/03 13:03:25;;;;;;;16.27;10.02;;;8.00;69.40;;;;;;4984739;28;20446;-84
2022/12/03 13:05:52;;;;;;;16.48;9.48;;;8.00;69.50;;;;;;4965051;28;20054;-80
2022/12/03 13:08:41;;;;;;;16.85;9.75;;;8.00;69.70;;;;;;4991998;28;20040;-81
2022/12/03 13:11:24;;;;;;;16.80;9.75;;;8.00;69.70;;;;;;5000181;28;20095;-82
2022/12/03 13:13:50;;;;;;;18.98;9.77;;;8.00;69.90;;;;;;5008482;28;20033;-81